Time;durP1;ratioP1;P1;durP2;ratioP2;P2;SDS_P1;SDS_P2;PMS_P1;PMS_P2;Temp;Humidity;BMP_temperature;BMP_pressure;BME280_temperature;BME280_humidity;BME280_pressure;Samples;Min_cycle;Max_cycle;Signal;HPM_P1;HPM_P2
2023/09/23 00:00:23;;;;;;;12.32;6.47;;;9.80;99.90;;;;;;4866681;29;20041;-81
2023/09/23 00:02:49;;;;;;;11.60;6.57;;;9.80;99.90;;;;;;4858908;29;20256;-80
2023/09/23 00:05:16;;;;;;;11.18;7.82;;;9.80;99.90;;;;;;4857839;29;20157;-81
2023/09/23 00:07:43;;;;;;;10.25;7.50;;;9.80;99.90;;;;;;4867359;29;20081;-81
2023/09/23 00:10:10;;;;;;;12.98;7.82;;;9.80;99.90;;;;;;4868092;29;20064;-81
2023/09/23 00:12:40;;;;;;;14.45;7.57;;;9.80;99.90;;;;;;4868660;29;20492;-80
2023/09/23 00:15:07;;;;;;;12.18;7.13;;;9.80;99.90;;;;;;4859474;29;20041;-80
2023/09/23 00:17:33;;;;;;;11.55;7.95;;;9.70;99.90;;;;;;4513894;29;10000617;-80
2023/09/23 00:20:00;;;;;;;12.93;7.18;;;9.70;99.90;;;;;;4865131;29;20049;-80
2023/09/23 00:22:26;;;;;;;10.13;6.63;;;9.70;99.90;;;;;;4870652;29;20082;-80
2023/09/23 00:24:54;;;;;;;9.95;6.93;;;9.70;99.90;;;;;;4869271;29;20059;-80
2023/09/23 00:27:20;;;;;;;9.63;5.93;;;9.60;99.90;;;;;;4855063;29;20037;-80
2023/09/23 00:29:45;;;;;;;4.90;3.55;;;9.60;99.90;;;;;;4867131;29;20088;-80
2023/09/23 00:32:12;;;;;;;5.68;2.47;;;9.60;99.90;;;;;;4870004;29;20045;-80
2023/09/23 00:34:38;;;;;;;4.25;1.80;;;9.60;99.90;;;;;;4872113;29;20029;-80
2023/09/23 00:37:04;;;;;;;10.85;2.10;;;9.50;99.90;;;;;;4872220;29;20036;-80
2023/09/23 00:39:30;;;;;;;5.28;1.50;;;9.50;99.90;;;;;;4863435;29;20030;-79
2023/09/23 00:41:55;;;;;;;2.83;1.30;;;9.50;99.90;;;;;;4883836;29;20074;-80
2023/09/23 00:44:21;;;;;;;3.13;1.00;;;9.50;99.90;;;;;;4872281;29;20063;-80
2023/09/23 00:46:46;;;;;;;1.98;0.90;;;9.50;99.90;;;;;;4868963;29;20108;-80
2023/09/23 00:49:13;;;;;;;2.80;0.90;;;9.50;99.90;;;;;;4867889;29;20075;-80
2023/09/23 00:51:40;;;;;;;4.47;0.93;;;9.50;99.90;;;;;;4866824;29;20041;-80
2023/09/23 00:54:13;;;;;;;1.80;0.90;;;9.50;99.90;;;;;;4871746;29;20029;-80
2023/09/23 00:56:40;;;;;;;3.58;1.05;;;9.50;99.90;;;;;;4867183;29;20488;-80
2023/09/23 00:59:06;;;;;;;4.78;1.10;;;9.50;99.90;;;;;;4870351;29;20033;-80
2023/09/23 01:01:32;;;;;;;2.05;1.00;;;9.40;99.90;;;;;;4871537;29;20048;-80
2023/09/23 01:03:58;;;;;;;4.13;1.10;;;9.50;99.90;;;;;;4860298;29;20328;-80
2023/09/23 01:06:27;;;;;;;3.28;1.02;;;9.40;99.90;;;;;;4860208;29;20322;-80
2023/09/23 01:08:54;;;;;;;3.45;1.20;;;9.40;99.90;;;;;;4869467;29;20041;-80
2023/09/23 01:11:21;;;;;;;3.38;0.90;;;9.30;99.90;;;;;;4869697;29;20088;-81
2023/09/23 01:13:51;;;;;;;2.40;0.90;;;9.30;99.90;;;;;;4869417;29;20037;-82
2023/09/23 01:16:16;;;;;;;5.47;1.15;;;9.30;99.90;;;;;;4864557;29;20068;-80
2023/09/23 01:18:45;;;;;;;2.58;0.90;;;9.30;99.90;;;;;;4870082;29;20160;-80
2023/09/23 01:21:12;;;;;;;5.22;1.35;;;9.30;99.90;;;;;;4868981;29;20089;-80
2023/09/23 01:23:38;;;;;;;3.38;1.10;;;9.30;99.90;;;;;;4869910;29;20037;-80
2023/09/23 01:26:04;;;;;;;1.77;0.88;;;9.30;99.90;;;;;;4869593;29;20109;-80
2023/09/23 01:28:32;;;;;;;2.97;0.88;;;9.30;99.90;;;;;;4870677;29;20085;-81
2023/09/23 01:30:59;;;;;;;5.20;1.08;;;9.30;99.90;;;;;;4864038;29;20085;-80
2023/09/23 01:33:26;;;;;;;2.03;0.90;;;9.30;99.90;;;;;;4864473;29;20152;-81
2023/09/23 01:35:55;;;;;;;2.40;0.90;;;9.20;99.90;;;;;;4863682;29;20617;-80
2023/09/23 01:38:21;;;;;;;5.28;1.20;;;9.20;99.90;;;;;;4868933;29;20037;-80
2023/09/23 01:40:47;;;;;;;4.15;1.20;;;9.20;99.90;;;;;;4868521;29;20444;-80
2023/09/23 01:43:13;;;;;;;2.90;0.82;;;9.10;99.90;;;;;;4868908;29;20033;-80
2023/09/23 01:45:39;;;;;;;2.45;1.10;;;9.10;99.90;;;;;;4870316;29;20306;-80
2023/09/23 01:48:05;;;;;;;2.63;0.88;;;9.10;99.90;;;;;;4860996;29;20227;-79
2023/09/23 01:50:30;;;;;;;3.55;1.00;;;9.10;99.90;;;;;;4869503;29;20041;-81
2023/09/23 01:52:59;;;;;;;2.58;0.88;;;9.00;99.90;;;;;;4870354;29;20125;-81
2023/09/23 01:55:25;;;;;;;8.45;1.67;;;9.00;99.90;;;;;;4867878;29;20452;-79
2023/09/23 01:57:51;;;;;;;3.88;0.90;;;9.00;99.90;;;;;;4867918;29;20036;-80
2023/09/23 02:00:25;;;;;;;3.70;1.10;;;8.90;99.90;;;;;;4868579;29;20364;-80
2023/09/23 02:02:57;;;;;;;4.25;1.30;;;8.90;99.90;;;;;;4854687;29;20037;-80
2023/09/23 02:05:27;;;;;;;4.30;1.20;;;8.90;99.90;;;;;;4857058;29;20488;-80
2023/09/23 02:07:53;;;;;;;4.50;1.02;;;9.00;99.90;;;;;;4852674;29;20492;-80
2023/09/23 02:10:24;;;;;;;2.20;1.02;;;9.00;99.90;;;;;;4868314;29;20025;-79
2023/09/23 02:12:50;;;;;;;3.17;0.93;;;8.90;99.90;;;;;;4867084;29;20047;-80
2023/09/23 02:15:16;;;;;;;4.45;1.27;;;8.90;99.90;;;;;;4867573;29;20036;-80
2023/09/23 02:17:46;;;;;;;5.15;0.85;;;8.90;99.90;;;;;;4867491;29;20415;-81
2023/09/23 02:20:21;;;;;;;5.63;1.20;;;8.90;99.90;;;;;;4866232;29;20033;-81
2023/09/23 02:22:48;;;;;;;3.90;0.82;;;8.90;99.90;;;;;;4854362;29;20464;-80
2023/09/23 02:25:14;;;;;;;6.25;1.08;;;8.90;99.90;;;;;;4848669;29;20037;-80
2023/09/23 02:27:41;;;;;;;4.50;1.00;;;8.90;99.90;;;;;;4855461;29;20116;-80
2023/09/23 02:30:09;;;;;;;2.70;1.10;;;8.90;99.90;;;;;;4867712;29;20088;-80
2023/09/23 02:32:39;;;;;;;5.07;1.10;;;8.90;99.90;;;;;;4866547;29;20041;-80
2023/09/23 02:35:07;;;;;;;3.83;1.00;;;8.90;99.90;;;;;;4866772;29;20060;-79
2023/09/23 02:37:32;;;;;;;6.70;1.20;;;8.90;99.90;;;;;;4867981;29;20036;-80
2023/09/23 02:39:58;;;;;;;2.78;0.90;;;8.90;99.90;;;;;;4867483;29;20033;-81
2023/09/23 02:42:24;;;;;;;2.95;0.90;;;8.90;99.90;;;;;;4854867;29;20044;-80
2023/09/23 02:44:49;;;;;;;7.95;1.00;;;8.90;99.90;;;;;;4867122;29;20033;-80
2023/09/23 02:47:16;;;;;;;3.45;0.90;;;8.90;99.90;;;;;;4867913;29;20585;-80
2023/09/23 02:49:44;;;;;;;3.65;1.20;;;8.90;99.90;;;;;;4854868;29;20025;-80
2023/09/23 02:52:10;;;;;;;5.57;1.20;;;8.90;99.90;;;;;;4871345;29;20064;-80
2023/09/23 02:54:36;;;;;;;4.72;2.00;;;8.90;99.90;;;;;;4866450;29;20064;-81
2023/09/23 02:57:01;;;;;;;7.35;2.13;;;8.90;99.90;;;;;;4851415;29;20034;-80
2023/09/23 02:59:31;;;;;;;9.13;4.18;;;8.90;99.90;;;;;;4869085;29;20033;-80
2023/09/23 03:01:57;;;;;;;8.55;3.25;;;8.90;99.90;;;;;;4868983;29;20041;-80
2023/09/23 03:04:23;;;;;;;9.02;4.80;;;8.90;99.90;;;;;;4870946;29;20079;-80
2023/09/23 03:06:53;;;;;;;12.10;6.32;;;8.90;99.90;;;;;;4866950;29;20089;-80
2023/09/23 03:09:31;;;;;;;9.48;4.10;;;8.90;99.90;;;;;;4867336;29;20048;-80
2023/09/23 03:11:57;;;;;;;11.80;5.47;;;8.90;99.90;;;;;;4866196;29;20043;-81
2023/09/23 03:14:28;;;;;;;8.32;4.05;;;8.90;99.90;;;;;;4850401;29;20037;-80
2023/09/23 03:16:54;;;;;;;8.50;4.45;;;8.80;99.90;;;;;;4850522;29;20089;-80
2023/09/23 03:19:31;;;;;;;14.18;6.22;;;8.90;99.90;;;;;;4866562;29;20056;-80
2023/09/23 03:21:58;;;;;;;18.23;9.60;;;8.90;99.90;;;;;;4866159;29;20697;-80
2023/09/23 03:24:28;;;;;;;20.65;9.68;;;8.90;99.90;;;;;;4865044;29;20567;-80
2023/09/23 03:26:56;;;;;;;16.45;9.10;;;8.90;99.90;;;;;;4866342;29;20478;-81
2023/09/23 03:29:22;;;;;;;13.23;5.95;;;8.90;99.90;;;;;;4864179;29;20073;-80
2023/09/23 03:31:49;;;;;;;12.27;4.32;;;8.90;99.90;;;;;;4865350;29;20045;-80
2023/09/23 03:34:16;;;;;;;8.95;2.60;;;8.90;99.90;;;;;;4865749;29;20057;-80
2023/09/23 03:36:43;;;;;;;7.63;1.65;;;8.80;99.90;;;;;;4865074;29;20451;-80
2023/09/23 03:39:09;;;;;;;7.70;1.75;;;8.80;99.90;;;;;;4864898;29;20036;-80
2023/09/23 03:41:38;;;;;;;5.97;1.50;;;8.80;99.90;;;;;;4854864;29;20038;-81
2023/09/23 03:44:07;;;;;;;8.07;1.25;;;8.80;99.90;;;;;;4862897;29;20063;-80
2023/09/23 03:46:34;;;;;;;6.10;1.63;;;8.70;99.90;;;;;;4865183;29;20065;-80
2023/09/23 03:49:00;;;;;;;8.10;1.17;;;8.70;99.90;;;;;;4866543;29;20055;-80
2023/09/23 03:51:26;;;;;;;7.78;1.52;;;8.70;99.90;;;;;;4864108;29;20491;-80
2023/09/23 03:53:51;;;;;;;4.70;1.20;;;8.70;99.90;;;;;;4866779;29;20503;-80
2023/09/23 03:56:27;;;;;;;4.93;1.17;;;8.60;99.90;;;;;;4871832;29;20118;-81
2023/09/23 03:58:56;;;;;;;4.20;1.23;;;8.60;99.90;;;;;;4869851;29;20499;-80
2023/09/23 04:01:24;;;;;;;7.38;1.42;;;8.60;99.90;;;;;;4869654;29;20140;-80
2023/09/23 04:03:53;;;;;;;4.35;1.10;;;8.60;99.90;;;;;;4864662;29;20387;-80
2023/09/23 04:06:19;;;;;;;4.53;1.40;;;8.60;99.90;;;;;;4851485;29;20037;-80
2023/09/23 04:08:45;;;;;;;7.80;1.38;;;8.60;99.90;;;;;;4861283;29;20143;-80
2023/09/23 04:11:15;;;;;;;3.70;1.77;;;8.60;99.90;;;;;;4871413;29;20041;-81
2023/09/23 04:13:42;;;;;;;8.95;2.03;;;8.60;99.90;;;;;;4871748;29;20194;-81
2023/09/23 04:16:09;;;;;;;7.15;2.75;;;8.60;99.90;;;;;;4869865;29;20120;-80
2023/09/23 04:18:34;;;;;;;5.53;3.03;;;8.60;99.90;;;;;;4867545;29;20270;-80
2023/09/23 04:21:04;;;;;;;6.55;2.25;;;8.60;99.90;;;;;;4862350;29;20033;-80
2023/09/23 04:23:30;;;;;;;7.97;2.42;;;8.50;99.90;;;;;;4866733;29;20029;-81
2023/09/23 04:25:56;;;;;;;5.88;1.73;;;8.60;99.90;;;;;;4866133;29;20037;-80
2023/09/23 04:28:22;;;;;;;7.60;2.92;;;8.50;99.90;;;;;;4867546;29;20077;-80
2023/09/23 04:30:52;;;;;;;15.98;7.88;;;8.50;99.90;;;;;;4865222;29;20029;-80
2023/09/23 04:33:18;;;;;;;20.75;10.65;;;8.50;99.90;;;;;;4867857;29;20033;-80
2023/09/23 04:35:43;;;;;;;22.23;10.75;;;8.50;99.90;;;;;;4865152;29;20077;-80
2023/09/23 04:38:10;;;;;;;16.88;9.80;;;8.60;99.90;;;;;;4861758;29;20030;-80
2023/09/23 04:40:35;;;;;;;17.15;9.20;;;8.50;99.90;;;;;;4868093;29;20021;-80
2023/09/23 04:43:04;;;;;;;18.20;9.07;;;8.60;99.90;;;;;;4862127;29;20381;-80
2023/09/23 04:45:29;;;;;;;16.55;9.48;;;8.60;99.90;;;;;;4856756;29;20043;-80
2023/09/23 04:47:55;;;;;;;19.13;10.55;;;8.50;99.90;;;;;;4868005;29;20033;-80
2023/09/23 04:50:24;;;;;;;20.88;10.32;;;8.50;99.90;;;;;;4867790;29;20713;-81
2023/09/23 04:52:50;;;;;;;16.23;7.70;;;8.50;99.90;;;;;;4867321;29;20139;-81
2023/09/23 04:55:16;;;;;;;10.45;5.43;;;8.50;99.90;;;;;;4861393;29;20076;-80
2023/09/23 04:57:42;;;;;;;15.75;6.43;;;8.50;99.90;;;;;;4867042;29;20029;-80
2023/09/23 05:00:14;;;;;;;11.80;5.95;;;8.50;99.90;;;;;;4857719;29;20063;-80
2023/09/23 05:02:40;;;;;;;13.73;6.68;;;8.50;99.90;;;;;;4859104;29;20519;-80
2023/09/23 05:05:09;;;;;;;12.55;8.10;;;8.50;99.90;;;;;;4846109;29;20517;-80
2023/09/23 05:07:37;;;;;;;18.77;8.30;;;8.50;99.90;;;;;;4856422;29;20041;-80
2023/09/23 05:10:03;;;;;;;17.27;7.32;;;8.50;99.90;;;;;;4865121;29;20164;-81
2023/09/23 05:12:29;;;;;;;13.50;4.93;;;8.50;99.90;;;;;;4862857;29;20085;-80
2023/09/23 05:14:57;;;;;;;6.85;3.00;;;8.50;99.90;;;;;;4866554;29;20518;-80
2023/09/23 05:17:26;;;;;;;11.55;3.25;;;8.50;99.90;;;;;;4866159;29;20033;-80
2023/09/23 05:19:52;;;;;;;6.10;2.92;;;8.50;99.90;;;;;;4858945;29;20095;-80
2023/09/23 05:22:18;;;;;;;7.85;2.63;;;8.50;99.90;;;;;;4863944;29;20045;-80
2023/09/23 05:24:50;;;;;;;8.00;3.92;;;8.40;99.90;;;;;;4865132;29;20025;-80
2023/09/23 05:27:16;;;;;;;11.25;4.10;;;8.40;99.90;;;;;;4865131;29;20043;-80
2023/09/23 05:29:43;;;;;;;14.93;6.82;;;8.50;99.90;;;;;;4864188;29;20048;-81
2023/09/23 05:32:12;;;;;;;13.63;6.78;;;8.40;99.90;;;;;;4860093;29;20040;-80
2023/09/23 05:34:42;;;;;;;15.02;6.30;;;8.40;99.90;;;;;;4865521;29;20396;-80
2023/09/23 05:37:11;;;;;;;11.20;5.20;;;8.40;99.90;;;;;;4863257;29;20082;-81
2023/09/23 05:39:37;;;;;;;17.08;5.78;;;8.40;99.90;;;;;;4865204;29;20036;-80
2023/09/23 05:42:03;;;;;;;12.02;4.63;;;8.40;99.90;;;;;;4865695;29;20127;-80
2023/09/23 05:44:28;;;;;;;9.05;2.95;;;8.40;99.90;;;;;;4846939;29;20473;-80
2023/09/23 05:46:54;;;;;;;10.48;3.08;;;8.40;99.90;;;;;;4862701;29;20123;-80
2023/09/23 05:49:19;;;;;;;11.40;2.60;;;8.40;99.90;;;;;;4864501;29;20029;-80
2023/09/23 05:51:45;;;;;;;4.95;2.47;;;8.40;99.90;;;;;;4863421;29;20040;-80
2023/09/23 05:54:11;;;;;;;7.13;2.30;;;8.40;99.90;;;;;;4866462;29;20503;-79
2023/09/23 05:56:37;;;;;;;9.35;2.90;;;8.40;99.90;;;;;;4855286;29;20065;-80
2023/09/23 05:59:05;;;;;;;10.73;3.33;;;8.40;99.90;;;;;;4861288;29;20099;-80
2023/09/23 06:01:31;;;;;;;10.27;3.80;;;8.40;99.90;;;;;;4870641;29;20474;-80
2023/09/23 06:03:58;;;;;;;8.90;3.75;;;8.40;99.90;;;;;;4864341;29;20040;-80
2023/09/23 06:06:23;;;;;;;10.88;4.40;;;8.40;99.90;;;;;;4862671;29;20037;-80
2023/09/23 06:08:50;;;;;;;8.27;3.53;;;8.40;99.90;;;;;;4865239;29;20487;-89
2023/09/23 06:11:16;;;;;;;16.80;6.60;;;8.40;99.90;;;;;;4867390;29;20084;-81
2023/09/23 06:13:41;;;;;;;8.02;2.60;;;8.50;99.90;;;;;;4865279;29;20056;-84
2023/09/23 06:16:07;;;;;;;6.72;1.70;;;8.70;99.90;;;;;;4869331;29;20111;-89
2023/09/23 06:18:33;;;;;;;5.63;2.38;;;8.70;99.90;;;;;;4865769;29;20025;-86
2023/09/23 06:21:00;;;;;;;10.13;1.30;;;8.70;99.90;;;;;;4865083;29;20057;-85
2023/09/23 06:23:26;;;;;;;4.35;1.40;;;8.80;99.90;;;;;;4867038;29;20037;-85
2023/09/23 06:25:56;;;;;;;8.60;1.40;;;8.80;99.90;;;;;;4866869;29;20049;-79
2023/09/23 06:28:22;;;;;;;9.30;2.03;;;8.80;99.90;;;;;;4864566;29;20057;-79
2023/09/23 06:30:48;;;;;;;50.80;22.83;;;8.90;99.90;;;;;;4863745;29;20033;-80
2023/09/23 06:33:14;;;;;;;28.95;9.60;;;8.90;99.90;;;;;;4865964;29;20040;-82
2023/09/23 06:35:39;;;;;;;15.82;5.03;;;9.00;99.90;;;;;;4862122;29;20029;-78
2023/09/23 06:38:05;;;;;;;17.10;4.13;;;9.20;99.90;;;;;;4857053;29;20119;-80
2023/09/23 06:40:31;;;;;;;4.00;1.20;;;9.60;99.90;;;;;;4860761;29;20291;-82
2023/09/23 06:42:56;;;;;;;333.13;150.52;;;9.70;99.90;;;;;;4859142;29;20223;-83
2023/09/23 06:45:22;;;;;;;45.95;20.50;;;9.70;99.90;;;;;;4860668;29;20025;-80
2023/09/23 06:47:47;;;;;;;11.82;4.22;;;9.80;99.90;;;;;;4861976;29;20101;-79
2023/09/23 06:50:13;;;;;;;9.38;2.10;;;9.80;99.90;;;;;;4864916;29;20040;-79
2023/09/23 06:52:39;;;;;;;10.18;4.00;;;9.80;99.90;;;;;;4860766;29;20033;-81
2023/09/23 06:55:05;;;;;;;5.47;2.78;;;9.90;99.90;;;;;;4860390;29;20088;-80
2023/09/23 06:57:30;;;;;;;12.30;1.80;;;9.80;99.90;;;;;;4857429;29;20356;-81
2023/09/23 06:59:56;;;;;;;349.63;171.65;;;9.80;99.90;;;;;;4857268;29;20092;-88
2023/09/23 07:02:21;;;;;;;53.33;25.25;;;9.90;99.90;;;;;;4864522;29;20470;-85
2023/09/23 07:04:47;;;;;;;9.07;2.70;;;9.90;99.90;;;;;;4861518;29;20496;-84
2023/09/23 07:07:13;;;;;;;9.80;8.90;;;9.90;99.90;;;;;;4866867;29;20483;-83
2023/09/23 07:09:38;;;;;;;7.30;5.10;;;10.00;99.90;;;;;;4857418;29;20026;-84
2023/09/23 07:12:05;;;;;;;3.95;1.77;;;10.30;99.90;;;;;;4864212;29;20132;-83
2023/09/23 07:14:31;;;;;;;7.60;1.42;;;10.30;99.90;;;;;;4857051;29;20505;-84
2023/09/23 07:16:56;;;;;;;6.10;1.52;;;10.40;99.90;;;;;;4868227;29;20068;-91
2023/09/23 07:19:22;;;;;;;4.85;1.00;;;10.50;99.90;;;;;;4871452;29;20048;-87
2023/09/23 07:21:47;;;;;;;20.50;6.93;;;10.50;99.90;;;;;;4854619;29;20101;-81
2023/09/23 07:24:13;;;;;;;8.82;2.25;;;10.50;99.90;;;;;;4521763;29;9999946;-87
2023/09/23 07:26:39;;;;;;;6.85;1.58;;;10.60;99.90;;;;;;4858509;29;20665;-78
2023/09/23 07:29:04;;;;;;;6.25;1.60;;;10.70;99.90;;;;;;4862103;29;20132;-81
2023/09/23 07:31:30;;;;;;;3.92;1.15;;;10.70;99.90;;;;;;4859120;29;20029;-80
2023/09/23 07:33:55;;;;;;;7.22;1.42;;;10.80;99.90;;;;;;4852634;29;20411;-83
2023/09/23 07:36:21;;;;;;;7.30;1.75;;;10.90;99.90;;;;;;4862195;29;20056;-82
2023/09/23 07:38:47;;;;;;;7.18;3.30;;;11.00;99.90;;;;;;4862822;29;20040;-78
2023/09/23 07:41:12;;;;;;;11.75;4.28;;;11.20;99.90;;;;;;4859995;29;20043;-86
2023/09/23 07:43:39;;;;;;;14.52;4.97;;;11.30;99.90;;;;;;4862831;29;20036;-83
2023/09/23 07:46:05;;;;;;;8.98;3.90;;;11.50;99.90;;;;;;4859197;29;20033;-80
2023/09/23 07:48:31;;;;;;;8.35;2.58;;;11.60;99.90;;;;;;4863980;29;20033;-81
2023/09/23 07:50:56;;;;;;;7.13;2.05;;;11.50;99.90;;;;;;4859299;29;20101;-84
2023/09/23 07:53:22;;;;;;;6.97;1.30;;;11.60;99.90;;;;;;4860252;29;20044;-82
2023/09/23 07:55:48;;;;;;;4.28;1.17;;;11.80;99.90;;;;;;4860071;29;20037;-78
2023/09/23 07:58:14;;;;;;;7.95;1.42;;;13.10;99.90;;;;;;4858656;29;20025;-79
2023/09/23 08:00:39;;;;;;;1.98;0.88;;;14.00;99.90;;;;;;4860457;29;20443;-81
2023/09/23 08:03:06;;;;;;;5.35;1.05;;;14.40;99.90;;;;;;4858894;29;20234;-76
2023/09/23 08:05:32;;;;;;;5.07;1.27;;;14.70;99.90;;;;;;4858531;29;20495;-78
2023/09/23 08:07:58;;;;;;;7.60;1.67;;;15.60;99.90;;;;;;4857575;29;20148;-80
2023/09/23 08:10:24;;;;;;;4.78;1.20;;;18.10;99.90;;;;;;4857862;29;20039;-78
2023/09/23 08:12:49;;;;;;;3.88;1.08;;;21.00;99.90;;;;;;4854979;29;20361;-78
2023/09/23 08:15:15;;;;;;;5.85;1.02;;;23.40;99.90;;;;;;4858775;29;20040;-78
2023/09/23 08:17:41;;;;;;;3.25;0.80;;;25.60;91.20;;;;;;4860626;29;20041;-80
2023/09/23 08:20:17;;;;;;;2.58;0.88;;;27.10;82.10;;;;;;4858401;29;20032;-78
2023/09/23 08:22:44;;;;;;;3.35;0.80;;;28.40;72.90;;;;;;4857883;29;20049;-78
2023/09/23 08:25:11;;;;;;;5.18;0.88;;;29.50;64.50;;;;;;4859751;29;20068;-80
2023/09/23 08:27:37;;;;;;;3.85;1.08;;;30.40;57.90;;;;;;4860884;29;20033;-78
2023/09/23 08:30:05;;;;;;;4.10;0.88;;;31.10;55.30;;;;;;4860774;29;20080;-77
2023/09/23 08:32:30;;;;;;;4.30;0.82;;;31.70;53.30;;;;;;4859821;29;20033;-77
2023/09/23 08:34:56;;;;;;;6.22;1.20;;;32.50;49.90;;;;;;4852710;29;20175;-78
2023/09/23 08:37:22;;;;;;;2.97;0.82;;;32.40;51.80;;;;;;4857606;29;20037;-76
2023/09/23 08:39:47;;;;;;;3.80;1.10;;;32.90;49.80;;;;;;4858917;29;20148;-76
2023/09/23 08:42:17;;;;;;;4.13;0.90;;;33.20;48.90;;;;;;4520986;29;10000299;-74
2023/09/23 08:44:43;;;;;;;1.95;0.88;;;33.40;49.70;;;;;;4847818;29;20096;-78
2023/09/23 08:47:10;;;;;;;4.95;0.93;;;33.70;47.90;;;;;;4847333;29;20041;-77
2023/09/23 08:49:37;;;;;;;2.60;0.60;;;33.80;43.60;;;;;;4846245;29;20057;-74
2023/09/23 08:52:04;;;;;;;4.07;1.17;;;33.90;46.60;;;;;;4851559;29;20037;-78
2023/09/23 08:54:31;;;;;;;4.72;1.10;;;34.00;46.00;;;;;;4849524;29;20502;-78
2023/09/23 08:56:57;;;;;;;4.18;1.00;;;34.30;46.40;;;;;;4855846;29;20415;-75
2023/09/23 08:59:23;;;;;;;5.10;1.33;;;34.40;43.00;;;;;;4854325;29;20037;-76
2023/09/23 09:01:49;;;;;;;3.75;1.00;;;34.80;43.20;;;;;;4861117;29;20850;-77
2023/09/23 09:04:17;;;;;;;5.53;1.23;;;34.90;43.20;;;;;;4859221;29;20029;-75
2023/09/23 09:06:47;;;;;;;2.60;0.98;;;35.00;41.20;;;;;;4852161;29;20039;-76
2023/09/23 09:09:13;;;;;;;4.47;0.90;;;35.00;42.10;;;;;;4850889;29;20523;-76
2023/09/23 09:11:38;;;;;;;4.97;0.80;;;35.00;42.80;;;;;;4858292;29;20143;-76
2023/09/23 09:14:04;;;;;;;7.53;1.17;;;35.10;41.80;;;;;;4860128;29;20384;-76
2023/09/23 09:16:30;;;;;;;3.30;0.77;;;35.10;42.50;;;;;;4858081;29;20316;-77
2023/09/23 09:18:55;;;;;;;4.45;1.23;;;35.10;42.20;;;;;;4856861;29;20039;-75
2023/09/23 09:21:21;;;;;;;4.95;1.10;;;35.40;39.50;;;;;;4851928;29;20052;-74
2023/09/23 09:23:47;;;;;;;3.08;0.77;;;35.70;42.00;;;;;;4851296;29;20041;-75
2023/09/23 09:26:13;;;;;;;2.20;0.73;;;35.80;41.00;;;;;;4859647;29;20245;-75
2023/09/23 09:28:38;;;;;;;3.47;0.73;;;35.80;41.90;;;;;;4858687;29;20136;-74
2023/09/23 09:31:09;;;;;;;4.47;0.80;;;35.80;40.00;;;;;;4855667;29;20045;-75
2023/09/23 09:33:37;;;;;;;2.55;0.80;;;35.80;40.00;;;;;;4857335;29;20435;-75
2023/09/23 09:36:07;;;;;;;4.38;1.52;;;36.00;42.00;;;;;;4860621;29;20180;-75
2023/09/23 09:38:33;;;;;;;3.65;0.90;;;36.20;41.00;;;;;;4863394;29;20029;-75
2023/09/23 09:41:02;;;;;;;3.97;1.17;;;36.30;40.20;;;;;;4862752;29;20534;-75
2023/09/23 09:43:30;;;;;;;2.95;1.08;;;37.00;40.40;;;;;;4862412;29;20043;-75
2023/09/23 09:46:01;;;;;;;6.13;1.20;;;36.80;39.20;;;;;;4864514;29;20029;-74
2023/09/23 09:48:30;;;;;;;;;;;36.60;38.30;;;;;;4864815;29;20494;-75
2023/09/23 09:50:56;;;;;;;4.20;1.23;;;36.60;41.00;;;;;;4858306;29;20446;-75
2023/09/23 09:53:23;;;;;;;4.25;0.82;;;36.60;39.10;;;;;;4862303;29;20192;-77
2023/09/23 09:55:49;;;;;;;3.28;0.90;;;36.30;39.70;;;;;;4864705;29;20033;-76
2023/09/23 09:58:15;;;;;;;4.18;0.90;;;36.70;38.30;;;;;;4862485;29;20124;-75
2023/09/23 10:00:44;;;;;;;4.35;0.90;;;36.80;39.50;;;;;;4856646;29;20112;-75
2023/09/23 10:03:12;;;;;;;4.32;0.93;;;36.50;40.70;;;;;;4844769;29;20687;-77
2023/09/23 10:05:47;;;;;;;3.72;0.90;;;36.60;40.20;;;;;;4858117;29;20835;-75
2023/09/23 10:08:15;;;;;;;6.53;0.90;;;36.60;36.90;;;;;;4861191;29;20041;-75
2023/09/23 10:10:48;;;;;;;2.28;0.70;;;36.60;38.20;;;;;;4859301;29;20931;-75
2023/09/23 10:13:19;;;;;;;3.45;0.70;;;36.50;39.30;;;;;;4856128;29;20037;-75
2023/09/23 10:15:45;;;;;;;3.55;1.08;;;36.40;39.60;;;;;;4858545;29;20043;-75
2023/09/23 10:18:18;;;;;;;2.83;0.73;;;36.40;39.00;;;;;;4859125;29;20037;-76
2023/09/23 10:20:52;;;;;;;3.53;1.02;;;36.40;37.30;;;;;;4842463;29;20072;-75
2023/09/23 10:23:19;;;;;;;2.85;0.63;;;36.10;38.50;;;;;;4847136;29;20136;-75
2023/09/23 10:25:48;;;;;;;2.70;0.70;;;35.70;38.20;;;;;;4860056;29;20109;-75
2023/09/23 10:28:30;;;;;;;2.80;0.82;;;36.00;39.40;;;;;;4861135;29;20469;-76
2023/09/23 10:31:04;;;;;;;2.60;0.60;;;36.20;38.00;;;;;;4859731;29;20416;-76
2023/09/23 10:33:39;;;;;;;2.90;0.70;;;36.30;37.90;;;;;;4849142;29;20045;-75
2023/09/23 10:36:06;;;;;;;3.17;0.85;;;35.50;40.30;;;;;;4855776;29;20033;-75
2023/09/23 10:38:38;;;;;;;3.38;0.80;;;35.30;38.90;;;;;;4862454;29;20045;-75
2023/09/23 10:41:04;;;;;;;4.53;0.90;;;35.10;40.20;;;;;;4864130;29;20056;-75
2023/09/23 10:43:31;;;;;;;3.17;0.90;;;34.80;41.70;;;;;;4863862;29;20045;-75
2023/09/23 10:45:59;;;;;;;3.65;0.90;;;34.40;38.10;;;;;;4860199;29;20029;-75
2023/09/23 10:48:29;;;;;;;3.67;0.73;;;33.80;39.80;;;;;;4861870;29;20033;-75
2023/09/23 10:50:55;;;;;;;3.33;1.00;;;33.50;42.30;;;;;;4860828;29;20388;-76
2023/09/23 10:53:30;;;;;;;3.83;1.02;;;33.20;40.20;;;;;;4863197;29;20167;-75
2023/09/23 10:55:57;;;;;;;3.25;0.70;;;32.90;41.50;;;;;;4866051;29;20069;-75
2023/09/23 10:58:23;;;;;;;2.45;0.60;;;32.40;44.00;;;;;;4864677;29;20092;-75
2023/09/23 11:00:51;;;;;;;2.70;0.57;;;32.10;43.50;;;;;;4864117;29;20047;-75
2023/09/23 11:03:17;;;;;;;4.05;0.90;;;32.20;43.10;;;;;;4865876;29;20041;-74
2023/09/23 11:05:44;;;;;;;5.00;0.80;;;32.20;42.10;;;;;;4862703;29;20033;-75
2023/09/23 11:08:11;;;;;;;3.10;0.70;;;31.60;42.50;;;;;;4864633;29;20517;-76
2023/09/23 11:10:41;;;;;;;3.15;0.75;;;30.70;40.80;;;;;;4863978;29;20040;-76
2023/09/23 11:13:11;;;;;;;2.42;0.68;;;30.40;45.10;;;;;;4863700;29;20214;-75
2023/09/23 11:15:38;;;;;;;2.77;0.90;;;30.00;46.50;;;;;;4848133;29;20763;-75
2023/09/23 11:18:08;;;;;;;1.60;0.60;;;29.40;43.70;;;;;;4864217;29;20492;-76
2023/09/23 11:20:35;;;;;;;3.17;0.60;;;29.20;48.30;;;;;;4864383;29;20429;-75
2023/09/23 11:23:03;;;;;;;3.85;1.02;;;28.90;50.00;;;;;;4862426;29;20522;-75
2023/09/23 11:25:30;;;;;;;2.75;0.90;;;27.70;46.60;;;;;;4863176;29;20112;-75
2023/09/23 11:28:02;;;;;;;3.28;0.80;;;26.30;48.50;;;;;;4864614;29;20608;-75
2023/09/23 11:30:28;;;;;;;4.50;1.15;;;25.80;53.60;;;;;;4865023;29;20338;-76
2023/09/23 11:32:54;;;;;;;3.42;0.90;;;25.00;52.10;;;;;;4878131;29;20068;-81
2023/09/23 11:35:20;;;;;;;3.75;0.80;;;24.30;56.60;;;;;;4865923;29;20438;-82
2023/09/23 11:37:47;;;;;;;2.10;0.75;;;24.30;60.00;;;;;;4526012;29;10000482;-79
2023/09/23 11:40:14;;;;;;;3.28;0.70;;;24.80;54.60;;;;;;4867964;29;20051;-79
2023/09/23 11:42:41;;;;;;;3.22;0.70;;;24.70;58.70;;;;;;4867437;29;20068;-79
2023/09/23 11:45:10;;;;;;;3.13;0.70;;;25.30;63.90;;;;;;4866489;29;20195;-83
2023/09/23 11:47:36;;;;;;;3.80;0.77;;;25.70;61.40;;;;;;4871814;29;20049;-79
2023/09/23 11:50:07;;;;;;;3.63;0.75;;;26.10;56.00;;;;;;4866002;29;20124;-85
2023/09/23 11:52:33;;;;;;;4.80;0.70;;;26.50;54.80;;;;;;4867420;29;20029;-80
2023/09/23 11:54:59;;;;;;;2.30;0.63;;;26.90;59.80;;;;;;4869449;29;20037;-86
2023/09/23 11:57:26;;;;;;;3.70;0.90;;;27.00;53.90;;;;;;4865540;29;20040;-83
2023/09/23 11:59:51;;;;;;;2.90;0.63;;;27.00;57.90;;;;;;4871172;29;20029;-90
2023/09/23 12:02:19;;;;;;;3.03;0.90;;;27.20;55.40;;;;;;4870409;29;20056;-83
2023/09/23 12:04:46;;;;;;;3.90;0.70;;;27.30;51.80;;;;;;4866902;29;20540;-84
2023/09/23 12:07:16;;;;;;;3.05;0.85;;;27.30;57.10;;;;;;4865698;29;20492;-87
2023/09/23 12:09:43;;;;;;;2.80;1.00;;;27.10;53.30;;;;;;4867354;29;20491;-82
2023/09/23 12:12:11;;;;;;;3.28;0.60;;;26.90;58.80;;;;;;4868098;29;20407;-82
2023/09/23 12:14:42;;;;;;;2.38;0.65;;;26.10;52.20;;;;;;4870006;29;20399;-84
2023/09/23 12:17:09;;;;;;;2.85;0.73;;;25.00;53.60;;;;;;4880201;29;20120;-85
2023/09/23 12:19:35;;;;;;;3.03;0.82;;;23.90;54.20;;;;;;4869422;29;20037;-82
2023/09/23 12:22:00;;;;;;;1.83;0.63;;;23.00;56.50;;;;;;4873917;29;20041;-83
2023/09/23 12:24:26;;;;;;;2.53;0.57;;;22.30;59.20;;;;;;4869413;29;20132;-83
2023/09/23 12:26:53;;;;;;;2.25;0.55;;;21.80;61.80;;;;;;4851795;29;20045;-83
2023/09/23 12:29:18;;;;;;;2.88;0.60;;;21.40;64.10;;;;;;4849608;29;20548;-82
2023/09/23 12:31:45;;;;;;;3.95;1.08;;;21.00;65.80;;;;;;4861161;29;20105;-81
2023/09/23 12:34:10;;;;;;;2.92;0.77;;;20.70;73.50;;;;;;4860515;29;20519;-82
2023/09/23 12:36:36;;;;;;;2.85;0.77;;;20.40;77.60;;;;;;4862022;29;20036;-81
2023/09/23 12:39:02;;;;;;;4.35;0.80;;;20.30;77.20;;;;;;4852656;29;20162;-82
2023/09/23 12:41:28;;;;;;;4.38;0.90;;;20.10;76.10;;;;;;4860101;29;20496;-81
2023/09/23 12:43:53;;;;;;;2.25;0.68;;;20.10;82.90;;;;;;4866319;29;20045;-82
2023/09/23 12:46:19;;;;;;;3.53;0.90;;;20.10;84.40;;;;;;4867679;29;20148;-82
2023/09/23 12:48:45;;;;;;;3.83;0.82;;;20.10;90.50;;;;;;4883503;29;20424;-81